createdAt,value
2024-01-20T00:01:08.943Z,1.67
2024-01-20T00:03:35.374Z,1.56
2024-01-20T00:06:01.941Z,1.45
2024-01-20T00:08:28.469Z,1.58
2024-01-20T00:10:55.111Z,1.13
2024-01-20T00:13:21.648Z,1.70
2024-01-20T00:15:48.523Z,1.88
2024-01-20T00:18:16.435Z,1.21
2024-01-20T00:20:43.045Z,1.35
2024-01-20T00:23:09.571Z,1.22
2024-01-20T00:25:36.046Z,1.33
2024-01-20T00:28:02.851Z,1.50
2024-01-20T00:30:29.376Z,2.00
2024-01-20T00:32:55.971Z,1.63
2024-01-20T00:35:24.065Z,1.88
2024-01-20T00:37:50.680Z,1.84
2024-01-20T00:40:17.152Z,1.76
2024-01-20T00:42:43.652Z,1.91
2024-01-20T00:45:10.400Z,1.59
2024-01-20T00:47:39.425Z,1.46
2024-01-20T00:50:07.495Z,1.48
2024-01-20T00:52:35.334Z,1.92
2024-01-20T00:55:01.774Z,1.71
2024-01-20T00:57:28.221Z,1.23
2024-01-20T00:59:54.637Z,1.57
2024-01-20T01:02:21.077Z,1.63
2024-01-20T01:04:47.728Z,1.45
2024-01-20T01:07:14.200Z,1.34
2024-01-20T01:09:41.931Z,1.93
2024-01-20T01:12:08.488Z,1.60
2024-01-20T01:14:35.020Z,1.76
2024-01-20T01:17:01.487Z,1.78
2024-01-20T01:19:27.955Z,1.69
2024-01-20T01:21:54.385Z,1.82
2024-01-20T01:24:20.838Z,1.97
2024-01-20T01:26:48.747Z,1.77
2024-01-20T01:29:15.275Z,2.19
2024-01-20T01:31:41.804Z,1.54
2024-01-20T01:34:08.443Z,1.85
2024-01-20T01:36:34.937Z,1.65
2024-01-20T01:39:01.373Z,1.74
2024-01-20T01:41:27.800Z,1.79
2024-01-20T01:43:55.669Z,1.50
2024-01-20T01:46:22.295Z,1.60
2024-01-20T01:48:48.916Z,1.30
2024-01-20T01:51:15.493Z,1.61
2024-01-20T01:53:42.150Z,1.46
2024-01-20T01:56:09.926Z,1.57
2024-01-20T01:58:36.409Z,1.80
2024-01-20T02:01:04.185Z,1.33
2024-01-20T02:03:30.888Z,1.82
2024-01-20T02:05:57.805Z,1.93
2024-01-20T02:08:26.015Z,1.93
2024-01-20T02:10:53.015Z,1.88
2024-01-20T02:13:19.622Z,1.56
2024-01-20T02:15:46.837Z,1.71
2024-01-20T02:18:14.901Z,1.91
2024-01-20T02:20:42.850Z,1.87
2024-01-20T02:23:10.636Z,1.69
2024-01-20T02:25:37.065Z,2.13
2024-01-20T02:28:04.101Z,2.06
2024-01-20T02:30:30.560Z,1.88
2024-01-20T02:32:57.335Z,2.10
2024-01-20T02:35:23.859Z,1.98
2024-01-20T02:37:50.448Z,1.87
2024-01-20T02:40:18.386Z,2.00
2024-01-20T02:42:44.852Z,1.77
2024-01-20T02:45:11.444Z,1.63
2024-01-20T02:47:37.919Z,1.98
2024-01-20T02:50:05.141Z,1.61
2024-01-20T02:52:31.925Z,1.99
2024-01-20T02:54:58.395Z,1.36
2024-01-20T02:57:26.158Z,1.93
2024-01-20T02:59:52.704Z,1.87
2024-01-20T03:02:19.414Z,1.56
2024-01-20T03:04:45.891Z,1.65
2024-01-20T03:07:12.316Z,1.78
2024-01-20T03:09:38.779Z,1.82
2024-01-20T03:12:06.138Z,2.04
2024-01-20T03:14:33.903Z,1.86
2024-01-20T03:17:00.374Z,1.68
2024-01-20T03:19:26.824Z,2.06
2024-01-20T03:21:53.276Z,2.00
2024-01-20T03:24:19.774Z,1.52
2024-01-20T03:26:46.359Z,1.75
2024-01-20T03:29:12.784Z,1.60
2024-01-20T03:31:40.589Z,1.54
2024-01-20T03:34:07.152Z,1.66
2024-01-20T03:36:33.649Z,1.80
2024-01-20T03:39:00.220Z,1.57
2024-01-20T03:41:26.641Z,1.73
2024-01-20T03:43:53.037Z,1.75
2024-01-20T03:46:19.492Z,2.04
2024-01-20T03:48:47.311Z,1.88
2024-01-20T03:51:13.832Z,1.87
2024-01-20T03:53:40.245Z,1.73
2024-01-20T03:56:06.670Z,1.26
2024-01-20T03:58:33.098Z,1.17
2024-01-20T04:00:59.563Z,1.68
2024-01-20T04:03:26.041Z,2.17
2024-01-20T04:05:53.823Z,1.95
2024-01-20T04:08:20.251Z,1.63
2024-01-20T04:10:46.686Z,1.41
2024-01-20T04:13:13.125Z,1.49
2024-01-20T04:15:39.586Z,1.56
2024-01-20T04:18:06.184Z,1.33
2024-01-20T04:20:32.659Z,1.62
2024-01-20T04:23:00.434Z,1.25
2024-01-20T04:25:26.854Z,1.23
2024-01-20T04:27:53.273Z,1.58
2024-01-20T04:30:19.722Z,1.66
2024-01-20T04:32:46.199Z,1.98
2024-01-20T04:35:12.754Z,1.67
2024-01-20T04:37:39.182Z,1.42
2024-01-20T04:40:08.101Z,1.58
2024-01-20T04:42:34.530Z,1.30
2024-01-20T04:45:01.036Z,1.45
2024-01-20T04:47:27.505Z,1.50
2024-01-20T04:49:54.015Z,1.71
2024-01-20T04:52:20.986Z,1.85
2024-01-20T04:54:47.403Z,1.78
2024-01-20T04:57:15.144Z,1.46
2024-01-20T04:59:41.609Z,1.84
2024-01-20T05:02:08.012Z,1.57
2024-01-20T05:04:34.629Z,1.61
2024-01-20T05:07:01.244Z,1.34
2024-01-20T05:09:27.762Z,1.92
2024-01-20T05:11:54.256Z,1.27
2024-01-20T05:14:22.073Z,1.84
2024-01-20T05:16:48.474Z,1.31
2024-01-20T05:19:15.047Z,1.65
2024-01-20T05:21:41.614Z,1.60
2024-01-20T05:24:08.102Z,1.52
2024-01-20T05:26:34.533Z,1.50
2024-01-20T05:29:01.006Z,1.59
2024-01-20T05:31:28.821Z,1.30
2024-01-20T05:33:55.481Z,1.14
2024-01-20T05:36:21.958Z,1.64
2024-01-20T05:38:48.499Z,1.32
2024-01-20T05:41:14.949Z,1.92
2024-01-20T05:43:41.464Z,1.42
2024-01-20T05:46:07.999Z,1.39
2024-01-20T05:48:36.362Z,1.91
2024-01-20T05:51:03.539Z,1.66
2024-01-20T05:53:29.997Z,1.75
2024-01-20T05:55:56.425Z,1.53
2024-01-20T05:58:22.874Z,1.22
2024-01-20T06:00:49.435Z,1.30
2024-01-20T06:03:15.870Z,1.51
2024-01-20T06:05:43.666Z,1.44
2024-01-20T06:08:10.136Z,1.28
2024-01-20T06:10:36.622Z,1.36
2024-01-20T06:13:03.317Z,1.33
2024-01-20T06:15:29.826Z,1.12
2024-01-20T06:17:56.383Z,0.93
2024-01-20T06:20:22.803Z,1.19
2024-01-20T06:22:50.526Z,1.39
2024-01-20T06:25:16.939Z,1.59
2024-01-20T06:27:43.380Z,1.24
2024-01-20T06:30:11.034Z,1.10
2024-01-20T06:32:37.529Z,1.34
2024-01-20T06:35:04.576Z,1.21
2024-01-20T06:37:31.010Z,1.11
2024-01-20T06:39:58.805Z,1.08
2024-01-20T06:42:25.434Z,1.18
2024-01-20T06:44:51.883Z,1.77
2024-01-20T06:47:18.450Z,1.40
2024-01-20T06:49:45.010Z,1.07
2024-01-20T06:52:11.460Z,1.44
2024-01-20T06:54:38.171Z,1.04
2024-01-20T06:57:06.163Z,1.07
2024-01-20T06:59:32.603Z,1.61
2024-01-20T07:01:59.014Z,1.36
2024-01-20T07:04:25.543Z,1.16
2024-01-20T07:06:52.061Z,0.85
2024-01-20T07:09:18.524Z,0.84
2024-01-20T07:11:44.961Z,1.33
2024-01-20T07:14:12.689Z,0.87
2024-01-20T07:16:39.112Z,1.54
2024-01-20T07:19:05.648Z,1.33
2024-01-20T07:21:32.158Z,1.05
2024-01-20T07:23:58.619Z,1.20
2024-01-20T07:26:25.047Z,1.00
2024-01-20T07:28:51.471Z,1.19
2024-01-20T07:31:19.242Z,1.49
2024-01-20T07:33:45.842Z,1.28
2024-01-20T07:36:12.351Z,0.93
2024-01-20T07:38:38.783Z,1.09
2024-01-20T07:41:05.302Z,0.94
2024-01-20T07:43:31.668Z,1.01
2024-01-20T07:45:58.128Z,1.50
2024-01-20T07:48:26.246Z,1.33
2024-01-20T07:50:52.832Z,1.17
2024-01-20T07:53:19.376Z,1.47
2024-01-20T07:55:45.789Z,1.25
2024-01-20T07:58:12.255Z,1.49
2024-01-20T08:00:38.904Z,1.49
2024-01-20T08:03:05.513Z,1.57
2024-01-20T08:05:35.594Z,1.66
2024-01-20T08:08:02.404Z,1.62
2024-01-20T08:10:28.811Z,1.33
2024-01-20T08:12:56.283Z,1.39
2024-01-20T08:15:22.763Z,1.39
2024-01-20T08:17:49.925Z,1.47
2024-01-20T08:20:16.488Z,1.41
2024-01-20T08:22:44.535Z,1.42
2024-01-20T08:25:11.659Z,1.22
2024-01-20T08:27:38.127Z,1.57
2024-01-20T08:30:05.995Z,1.56
2024-01-20T08:32:32.608Z,1.98
2024-01-20T08:34:59.279Z,1.79
2024-01-20T08:37:25.700Z,1.77
2024-01-20T08:39:53.439Z,1.55
2024-01-20T08:42:19.861Z,1.79
2024-01-20T08:44:46.253Z,2.14
2024-01-20T08:47:12.690Z,2.03
2024-01-20T08:49:39.174Z,2.04
2024-01-20T08:52:06.445Z,2.07
2024-01-20T08:54:32.944Z,1.93
2024-01-20T08:57:00.765Z,1.82
2024-01-20T08:59:27.208Z,1.64
2024-01-20T09:01:53.770Z,1.96
2024-01-20T09:04:20.227Z,1.60
2024-01-20T09:06:46.706Z,1.95
2024-01-20T09:09:13.350Z,1.96
2024-01-20T09:11:39.815Z,1.89
2024-01-20T09:14:07.552Z,2.06
2024-01-20T09:16:34.277Z,2.42
2024-01-20T09:19:00.866Z,2.33
2024-01-20T09:21:27.437Z,2.14
2024-01-20T09:23:54.098Z,2.70
2024-01-20T09:26:20.582Z,2.31
2024-01-20T09:28:47.049Z,1.95
2024-01-20T09:31:14.929Z,2.56
2024-01-20T09:33:41.469Z,2.68
2024-01-20T09:36:08.120Z,2.57
2024-01-20T09:38:34.571Z,2.53
2024-01-20T09:41:01.530Z,2.64
2024-01-20T09:43:28.431Z,2.91
2024-01-20T09:45:55.676Z,2.49
2024-01-20T09:48:24.141Z,2.12
2024-01-20T09:50:50.732Z,2.25
2024-01-20T09:53:19.070Z,2.02
2024-01-20T09:55:46.741Z,2.36
2024-01-20T09:58:14.381Z,2.54
2024-01-20T10:00:42.104Z,2.37
2024-01-20T10:03:10.724Z,2.49
2024-01-20T10:05:39.104Z,2.33
2024-01-20T10:08:06.478Z,2.57
2024-01-20T10:10:33.023Z,2.21
2024-01-20T10:12:59.814Z,2.67
2024-01-20T10:15:30.926Z,3.10
2024-01-20T10:17:59.835Z,2.70
2024-01-20T10:20:27.746Z,2.68
2024-01-20T10:22:55.484Z,2.70
2024-01-20T10:25:22.092Z,2.68
2024-01-20T10:27:50.026Z,3.02
2024-01-20T10:30:19.300Z,2.94
2024-01-20T10:32:57.681Z,2.92
2024-01-20T10:35:33.822Z,2.78
2024-01-20T10:38:01.919Z,3.05
2024-01-20T10:40:28.324Z,2.51
2024-01-20T10:42:56.953Z,3.06
2024-01-20T10:45:25.071Z,3.32
2024-01-20T10:48:05.777Z,3.29
2024-01-20T10:50:35.000Z,3.18
2024-01-20T10:53:04.126Z,3.02
2024-01-20T10:55:31.923Z,3.03
2024-01-20T10:57:59.556Z,3.02
2024-01-20T11:00:26.042Z,2.97
2024-01-20T11:02:52.702Z,3.13
2024-01-20T11:05:21.921Z,3.01
2024-01-20T11:07:58.884Z,3.14
2024-01-20T11:10:27.288Z,3.20
2024-01-20T11:13:00.570Z,3.22
2024-01-20T11:15:29.510Z,3.19
2024-01-20T11:17:56.129Z,3.46
2024-01-20T11:20:22.737Z,3.25
2024-01-20T11:22:49.393Z,3.76
2024-01-20T11:25:15.816Z,3.66
2024-01-20T11:27:48.463Z,3.47
2024-01-20T11:30:24.435Z,3.84
2024-01-20T11:32:51.350Z,4.18
2024-01-20T11:35:17.791Z,3.84
2024-01-20T11:37:44.808Z,4.10
2024-01-20T11:40:12.006Z,3.71
2024-01-20T11:42:38.454Z,4.20
2024-01-20T11:45:07.535Z,4.22
2024-01-20T11:47:34.197Z,4.74
2024-01-20T11:50:01.114Z,4.52
2024-01-20T11:52:27.927Z,4.56
2024-01-20T11:54:54.865Z,4.64
2024-01-20T11:57:21.586Z,4.29
2024-01-20T11:59:48.385Z,4.24
2024-01-20T12:02:16.729Z,4.49
2024-01-20T12:04:43.384Z,4.70
2024-01-20T12:07:10.247Z,4.62
2024-01-20T12:09:36.809Z,4.63
2024-01-20T12:12:04.299Z,4.57
2024-01-20T12:14:30.968Z,4.88
2024-01-20T12:16:57.953Z,5.21
2024-01-20T12:19:25.837Z,4.69
2024-01-20T12:21:52.406Z,4.61
2024-01-20T12:24:18.898Z,4.32
2024-01-20T12:26:45.361Z,4.54
2024-01-20T12:29:11.756Z,4.00
2024-01-20T12:31:38.224Z,3.86
2024-01-20T12:34:04.854Z,3.93
2024-01-20T12:36:32.797Z,3.55
2024-01-20T12:38:59.267Z,3.65
2024-01-20T12:41:25.747Z,3.77
2024-01-20T12:43:52.209Z,3.55
2024-01-20T12:46:18.835Z,3.90
2024-01-20T12:48:45.739Z,4.00
2024-01-20T12:51:12.895Z,3.79
2024-01-20T12:53:40.738Z,4.14
2024-01-20T12:56:07.384Z,3.93
2024-01-20T12:58:33.814Z,3.90
2024-01-20T13:01:00.466Z,3.81
2024-01-20T13:03:26.967Z,3.43
2024-01-20T13:05:53.550Z,3.93
2024-01-20T13:08:20.101Z,3.79
2024-01-20T13:10:48.488Z,4.26
2024-01-20T13:15:42.697Z,3.59
2024-01-20T13:18:09.362Z,3.89
2024-01-20T13:20:36.259Z,4.05
2024-01-20T13:23:02.907Z,3.89
2024-01-20T13:25:30.026Z,3.77
2024-01-20T13:27:57.880Z,3.77
2024-01-20T13:30:24.506Z,3.63
2024-01-20T13:32:50.959Z,4.05
2024-01-20T13:35:17.584Z,4.13
2024-01-20T13:37:44.065Z,3.81
2024-01-20T13:40:11.677Z,3.66
2024-01-20T13:42:39.861Z,3.77
2024-01-20T13:45:09.390Z,3.96
2024-01-20T13:47:37.274Z,3.77
2024-01-20T13:50:04.347Z,3.85
2024-01-20T13:52:30.981Z,4.46
2024-01-20T13:54:57.514Z,4.12
2024-01-20T13:57:25.254Z,4.09
2024-01-20T13:59:51.699Z,4.31
2024-01-20T14:02:19.520Z,4.42
2024-01-20T14:04:45.909Z,4.36
2024-01-20T14:07:12.550Z,4.34
2024-01-20T14:09:39.111Z,3.82
2024-01-20T14:12:06.641Z,4.23
2024-01-20T14:14:33.193Z,3.93
2024-01-20T14:16:59.769Z,4.10
2024-01-20T14:19:27.658Z,4.27
2024-01-20T14:21:54.227Z,4.30
2024-01-20T14:24:20.714Z,3.68
2024-01-20T14:26:47.371Z,3.58
2024-01-20T14:29:14.246Z,3.55
2024-01-20T14:31:47.705Z,4.33
2024-01-20T14:34:14.349Z,3.96
2024-01-20T14:36:43.008Z,4.05
2024-01-20T14:39:09.658Z,4.00
2024-01-20T14:41:36.162Z,4.00
2024-01-20T14:44:02.622Z,3.60
2024-01-20T14:46:29.030Z,4.00
2024-01-20T14:48:55.708Z,4.20
2024-01-20T14:51:22.347Z,3.95
2024-01-20T14:53:50.393Z,4.14
2024-01-20T14:56:16.820Z,4.03
2024-01-20T14:58:43.410Z,4.27
2024-01-20T15:01:09.826Z,3.97
2024-01-20T15:03:36.359Z,3.94
2024-01-20T15:06:03.032Z,3.85
2024-01-20T15:08:29.483Z,3.94
2024-01-20T15:10:57.397Z,4.00
2024-01-20T15:13:23.818Z,3.75
2024-01-20T15:15:50.645Z,3.39
2024-01-20T15:18:17.275Z,3.66
2024-01-20T15:20:44.661Z,3.79
2024-01-20T15:25:47.801Z,3.62
2024-01-20T15:28:14.586Z,3.51
2024-01-20T15:30:41.379Z,3.52
2024-01-20T15:33:08.087Z,3.53
2024-01-20T15:35:34.525Z,3.57
2024-01-20T15:38:02.519Z,3.54
2024-01-20T15:40:32.244Z,3.60
2024-01-20T15:43:00.096Z,3.26
2024-01-20T15:45:26.609Z,3.37
2024-01-20T15:47:53.133Z,3.42
2024-01-20T15:50:19.568Z,4.11
2024-01-20T15:52:45.978Z,4.05
2024-01-20T15:55:12.540Z,4.23
2024-01-20T15:57:39.156Z,4.77
2024-01-20T16:00:08.312Z,4.18
2024-01-20T16:02:35.361Z,5.12
2024-01-20T16:05:01.821Z,4.40
2024-01-20T16:07:28.252Z,3.90
2024-01-20T16:09:54.862Z,3.79
2024-01-20T16:12:21.317Z,3.73
2024-01-20T16:14:48.815Z,4.07
2024-01-20T16:17:16.587Z,4.07
2024-01-20T16:19:43.085Z,3.86
2024-01-20T16:22:09.566Z,3.78
2024-01-20T16:24:36.169Z,3.21
2024-01-20T16:27:02.820Z,3.82
2024-01-20T16:29:29.367Z,3.42
2024-01-20T16:31:55.905Z,3.87
2024-01-20T16:34:23.896Z,3.60
2024-01-20T16:36:50.789Z,3.39
2024-01-20T16:39:17.689Z,3.68
2024-01-20T16:41:44.156Z,3.34
2024-01-20T16:44:10.636Z,3.47
2024-01-20T16:46:38.271Z,3.78
2024-01-20T16:49:05.083Z,3.72
2024-01-20T16:51:32.919Z,3.85
2024-01-20T16:53:59.404Z,3.87
2024-01-20T16:56:25.879Z,3.85
2024-01-20T16:58:52.295Z,3.77
2024-01-20T17:01:18.805Z,3.73
2024-01-20T17:03:45.326Z,3.59
2024-01-20T17:06:11.819Z,3.66
2024-01-20T17:08:39.602Z,3.71
2024-01-20T17:11:06.012Z,3.67
2024-01-20T17:13:32.554Z,3.49
2024-01-20T17:15:59.094Z,3.45
2024-01-20T17:18:25.675Z,3.37
2024-01-20T17:20:52.148Z,3.12
2024-01-20T17:23:18.637Z,2.97
2024-01-20T17:25:46.405Z,3.12
2024-01-20T17:28:12.893Z,3.53
2024-01-20T17:30:39.493Z,3.29
2024-01-20T17:33:06.056Z,3.30
2024-01-20T17:35:32.637Z,3.30
2024-01-20T17:37:59.080Z,3.19
2024-01-20T17:40:25.460Z,3.23
2024-01-20T17:42:53.286Z,3.31
2024-01-20T17:45:19.919Z,2.71
2024-01-20T17:47:46.444Z,2.87
2024-01-20T17:50:13.184Z,3.00
2024-01-20T17:52:39.766Z,3.05
2024-01-20T17:55:07.158Z,2.91
2024-01-20T17:57:33.637Z,3.21
2024-01-20T18:00:01.839Z,2.39
2024-01-20T18:02:28.241Z,2.16
2024-01-20T18:04:54.809Z,2.52
2024-01-20T18:07:21.338Z,2.33
2024-01-20T18:09:47.736Z,2.56
2024-01-20T18:12:14.235Z,2.78
2024-01-20T18:14:40.676Z,2.81
2024-01-20T18:17:10.795Z,2.77
2024-01-20T18:19:38.044Z,2.60
2024-01-20T18:22:07.490Z,2.79
2024-01-20T18:24:33.911Z,2.67
2024-01-20T18:27:00.509Z,3.05
2024-01-20T18:29:26.926Z,2.37
2024-01-20T18:31:53.375Z,2.34
2024-01-20T18:34:21.353Z,2.08
2024-01-20T18:36:47.892Z,2.15
2024-01-20T18:39:14.336Z,2.33
2024-01-20T18:41:41.029Z,2.65
2024-01-20T18:44:07.451Z,2.76
2024-01-20T18:46:33.882Z,2.76
2024-01-20T18:49:00.457Z,2.63
2024-01-20T18:51:28.409Z,2.29
2024-01-20T18:53:54.828Z,2.73
2024-01-20T18:56:21.334Z,2.65
2024-01-20T18:58:47.751Z,2.73
2024-01-20T19:01:14.274Z,3.12
2024-01-20T19:03:41.866Z,3.14
2024-01-20T19:06:08.534Z,3.02
2024-01-20T19:08:38.537Z,2.66
2024-01-20T19:11:05.506Z,2.90
2024-01-20T19:13:31.927Z,2.95
2024-01-20T19:15:58.414Z,2.58
2024-01-20T19:18:24.942Z,2.46
2024-01-20T19:20:51.511Z,2.30
2024-01-20T19:23:17.903Z,2.23
2024-01-20T19:25:45.678Z,2.09
2024-01-20T19:28:12.144Z,2.40
2024-01-20T19:30:38.574Z,2.09
2024-01-20T19:33:06.150Z,1.96
2024-01-20T19:35:32.941Z,1.80
2024-01-20T19:38:00.172Z,1.83
2024-01-20T19:40:26.571Z,1.93
2024-01-20T19:42:54.369Z,1.92
2024-01-20T19:45:20.809Z,1.67
2024-01-20T19:47:47.375Z,2.23
2024-01-20T19:50:13.856Z,1.83
2024-01-20T19:52:40.261Z,1.98
2024-01-20T19:55:07.258Z,2.15
2024-01-20T19:57:33.752Z,1.93
2024-01-20T20:00:01.508Z,2.29
2024-01-20T20:02:27.967Z,1.85
2024-01-20T20:04:54.435Z,1.94
2024-01-20T20:07:20.834Z,1.87
2024-01-20T20:09:47.318Z,1.93
2024-01-20T20:12:13.799Z,1.69
2024-01-20T20:14:40.221Z,1.61
2024-01-20T20:17:07.996Z,1.69
2024-01-20T20:19:34.535Z,1.85
2024-01-20T20:22:00.991Z,1.48
2024-01-20T20:24:27.569Z,1.88
2024-01-20T20:26:54.027Z,1.99
2024-01-20T20:29:20.473Z,2.10
2024-01-20T20:31:47.143Z,1.99
2024-01-20T20:34:15.154Z,1.47
2024-01-20T20:36:41.699Z,1.93
2024-01-20T20:39:08.204Z,2.21
2024-01-20T20:41:34.656Z,1.95
2024-01-20T20:44:01.107Z,1.70
2024-01-20T20:46:27.779Z,1.86
2024-01-20T20:48:54.291Z,1.86
2024-01-20T20:51:22.394Z,1.51
2024-01-20T20:53:48.856Z,1.47
2024-01-20T20:56:15.324Z,1.52
2024-01-20T20:58:43.959Z,1.85
2024-01-20T21:01:10.755Z,1.77
2024-01-20T21:03:37.525Z,1.67
2024-01-20T21:06:04.604Z,1.52
2024-01-20T21:08:32.382Z,1.84
2024-01-20T21:10:58.799Z,1.69
2024-01-20T21:13:25.261Z,1.43
2024-01-20T21:15:51.837Z,1.40
2024-01-20T21:18:18.511Z,1.63
2024-01-20T21:20:45.211Z,1.92
2024-01-20T21:23:11.930Z,1.89
2024-01-20T21:25:39.910Z,1.64
2024-01-20T21:28:06.803Z,1.05
2024-01-20T21:30:33.644Z,1.49
2024-01-20T21:33:00.253Z,1.25
2024-01-20T21:35:26.774Z,1.17
2024-01-20T21:37:53.243Z,1.13
2024-01-20T21:40:20.057Z,1.32
2024-01-20T21:42:48.070Z,1.61
2024-01-20T21:45:14.924Z,1.00
2024-01-20T21:47:41.475Z,1.10
2024-01-20T21:50:08.548Z,1.21
2024-01-20T21:52:35.028Z,0.94
2024-01-20T21:55:01.494Z,1.54
2024-01-20T21:57:27.942Z,0.96
2024-01-20T21:59:55.717Z,1.13
2024-01-20T22:02:22.155Z,0.65
2024-01-20T22:04:48.584Z,1.12
2024-01-20T22:07:15.013Z,0.98
2024-01-20T22:09:41.506Z,0.48
2024-01-20T22:12:08.243Z,0.62
2024-01-20T22:14:34.728Z,0.71
2024-01-20T22:17:02.506Z,0.78
2024-01-20T22:19:29.102Z,0.68
2024-01-20T22:21:55.658Z,0.65
2024-01-20T22:24:22.185Z,1.25
2024-01-20T22:26:48.637Z,1.16
2024-01-20T22:29:24.034Z,0.67
2024-01-20T22:31:57.321Z,1.07
2024-01-20T22:34:25.426Z,1.00
2024-01-20T22:36:51.987Z,0.83
2024-01-20T22:39:18.547Z,0.83
2024-01-20T22:41:45.454Z,0.57
2024-01-20T22:44:11.905Z,1.09
2024-01-20T22:46:38.421Z,1.17
2024-01-20T22:49:04.875Z,0.94
2024-01-20T22:51:32.753Z,1.06
2024-01-20T22:53:59.253Z,0.85
2024-01-20T22:56:25.640Z,1.13
2024-01-20T22:58:52.100Z,0.99
2024-01-20T23:01:18.687Z,0.82
2024-01-20T23:03:45.428Z,1.39
2024-01-20T23:06:12.184Z,1.20
2024-01-20T23:08:40.131Z,0.88
2024-01-20T23:11:06.605Z,0.75
2024-01-20T23:13:33.047Z,0.97
2024-01-20T23:15:59.600Z,1.20
2024-01-20T23:18:26.091Z,1.38
2024-01-20T23:20:52.634Z,0.83
2024-01-20T23:23:19.089Z,0.70
2024-01-20T23:25:46.823Z,0.74
2024-01-20T23:28:13.383Z,0.99
2024-01-20T23:30:39.904Z,1.05
2024-01-20T23:33:06.449Z,0.90
2024-01-20T23:35:32.905Z,0.92
2024-01-20T23:37:59.313Z,0.69
2024-01-20T23:40:25.741Z,0.92
2024-01-20T23:42:53.497Z,0.76
2024-01-20T23:45:20.014Z,0.95
2024-01-20T23:47:46.536Z,1.05
2024-01-20T23:50:13.318Z,0.83
2024-01-20T23:52:39.809Z,1.21
2024-01-20T23:55:06.705Z,1.25
2024-01-20T23:57:33.185Z,0.94
